Time;durP1;ratioP1;P1;durP2;ratioP2;P2;SDS_P1;SDS_P2;PMS_P1;PMS_P2;Temp;Humidity;BMP_temperature;BMP_pressure;BME280_temperature;BME280_humidity;BME280_pressure;Samples;Min_cycle;Max_cycle;Signal;HPM_P1;HPM_P2
2022/09/25 00:00:45;;;;;;;13.18;3.35;;;;;;;10.25;100.00;101464.47;5061764;28;20769;-72
2022/09/25 00:03:11;;;;;;;16.40;3.65;;;;;;;10.17;100.00;101466.63;5060923;28;20044;-72
2022/09/25 00:05:39;;;;;;;9.77;3.38;;;;;;;10.26;100.00;101464.38;5062077;28;20537;-73
2022/09/25 00:08:05;;;;;;;16.02;3.05;;;;;;;10.21;100.00;101478.84;5054929;28;20035;-72
2022/09/25 00:10:31;;;;;;;14.90;4.90;;;;;;;10.25;100.00;101467.97;5060783;28;20527;-73
2022/09/25 00:12:56;;;;;;;7.10;3.85;;;;;;;10.25;100.00;101473.31;5054124;28;20032;-73
2022/09/25 00:15:22;;;;;;;9.55;3.92;;;;;;;10.25;100.00;101475.97;5055518;28;20545;-73
2022/09/25 00:17:48;;;;;;;4.85;2.92;;;;;;;10.36;100.00;101483.41;5029591;28;20036;-72
2022/09/25 00:20:16;;;;;;;9.18;3.45;;;;;;;10.26;100.00;101474.19;5061323;28;20063;-73
2022/09/25 00:22:41;;;;;;;11.70;3.60;;;;;;;10.35;100.00;101471.03;5060018;28;20547;-72
2022/09/25 00:25:14;;;;;;;19.38;3.53;;;;;;;10.20;100.00;101482.47;5054232;28;20024;-72
2022/09/25 00:27:40;;;;;;;;;;;;;;;10.32;100.00;101473.84;5061487;28;20051;-72
2022/09/25 00:30:07;;;;;;;19.38;3.83;;;;;;;10.29;100.00;101474.88;5059245;28;20615;-73
2022/09/25 00:32:33;;;;;;;12.38;3.53;;;;;;;10.23;100.00;101484.94;5060633;28;20474;-73
2022/09/25 00:34:58;;;;;;;9.75;2.70;;;;;;;10.13;100.00;101477.41;5057129;28;20116;-73
2022/09/25 00:37:24;;;;;;;8.30;3.55;;;;;;;10.11;100.00;101476.66;5059410;28;20052;-71
2022/09/25 00:39:50;;;;;;;10.52;3.47;;;;;;;10.14;100.00;101480.97;5052722;28;20047;-70
2022/09/25 00:42:19;;;;;;;11.40;3.83;;;;;;;10.05;100.00;101470.78;5058061;28;20041;-71
2022/09/25 00:45:01;;;;;;;20.95;5.03;;;;;;;10.15;100.00;101476.50;5060113;28;20574;-73
2022/09/25 00:47:41;;;;;;;6.60;3.20;;;;;;;10.12;100.00;101481.03;5060046;28;20039;-73
2022/09/25 00:50:23;;;;;;;9.98;4.53;;;;;;;10.00;100.00;101473.69;5057862;28;20044;-73
2022/09/25 00:52:52;;;;;;;10.93;4.15;;;;;;;9.92;100.00;101473.19;5055614;28;20366;-72
2022/09/25 00:55:18;;;;;;;13.05;4.53;;;;;;;9.97;100.00;101480.97;5033761;28;20024;-72
2022/09/25 00:57:47;;;;;;;12.52;4.68;;;;;;;9.90;100.00;101475.09;5057764;28;20538;-72
2022/09/25 01:00:13;;;;;;;10.40;4.60;;;;;;;9.88;100.00;101479.59;5052594;28;20048;-72
2022/09/25 01:02:43;;;;;;;18.98;4.50;;;;;;;9.90;100.00;101475.09;5060461;28;20051;-73
2022/09/25 01:05:13;;;;;;;17.10;4.85;;;;;;;9.86;100.00;101474.38;5055884;28;20892;-73
2022/09/25 01:07:42;;;;;;;15.20;6.05;;;;;;;9.77;100.00;101480.16;5041448;28;20678;-71
2022/09/25 01:10:09;;;;;;;9.13;4.88;;;;;;;9.77;100.00;101487.28;5055093;28;20055;-72
2022/09/25 01:12:42;;;;;;;10.63;4.85;;;;;;;9.71;100.00;101479.59;5030573;28;20502;-71
2022/09/25 01:15:11;;;;;;;11.95;5.32;;;;;;;9.71;100.00;101484.94;5059823;28;20179;-72
2022/09/25 01:17:58;;;;;;;13.57;6.03;;;;;;;9.65;100.00;101485.25;5059988;28;20078;-73
2022/09/25 01:20:43;;;;;;;14.10;5.40;;;;;;;9.69;100.00;101476.13;5053306;28;20504;-71
2022/09/25 01:23:47;;;;;;;17.75;5.28;;;;;;;9.62;100.00;101474.72;5055343;28;20037;-73
2022/09/25 01:26:35;;;;;;;13.48;4.32;;;;;;;9.58;100.00;101479.31;5055461;28;20036;-73
2022/09/25 01:29:07;;;;;;;11.82;4.45;;;;;;;9.50;100.00;101477.06;5058375;28;20036;-73
2022/09/25 01:31:37;;;;;;;14.23;4.53;;;;;;;9.44;100.00;101474.69;5033964;28;20041;-73
2022/09/25 01:34:18;;;;;;;9.50;4.05;;;;;;;9.50;100.00;101484.19;5055243;28;20056;-72
2022/09/25 01:36:52;;;;;;;13.35;3.95;;;;;;;9.46;100.00;101480.81;5052959;28;20432;-71
2022/09/25 01:39:31;;;;;;;15.50;4.03;;;;;;;9.46;100.00;101486.13;5054995;28;20713;-72
2022/09/25 01:42:05;;;;;;;12.77;4.55;;;;;;;9.30;100.00;101480.69;5054977;28;20401;-73
2022/09/25 01:44:45;;;;;;;14.35;4.97;;;;;;;9.41;100.00;101487.28;5053332;28;20044;-73
2022/09/25 01:47:22;;;;;;;21.65;4.57;;;;;;;9.43;100.00;101482.75;5056955;28;20791;-74
2022/09/25 01:49:55;;;;;;;12.20;3.42;;;;;;;9.39;100.00;101482.03;5040799;28;20068;-71
2022/09/25 01:52:31;;;;;;;10.50;3.95;;;;;;;9.31;100.00;101484.19;5031943;28;20496;-73
2022/09/25 01:55:07;;;;;;;17.65;4.25;;;;;;;9.36;100.00;101492.81;5056305;28;20142;-73
2022/09/25 01:57:55;;;;;;;15.02;4.60;;;;;;;9.28;100.00;101497.63;5050318;28;20048;-72
2022/09/25 02:00:22;;;;;;;10.75;4.50;;;;;;;9.30;100.00;101490.47;5060206;28;20035;-73
2022/09/25 02:02:54;;;;;;;14.02;4.68;;;;;;;9.36;100.00;101491.97;5059283;28;20060;-71
2022/09/25 02:05:30;;;;;;;13.15;4.95;;;;;;;9.31;100.00;101484.19;5036097;28;20029;-72
2022/09/25 02:08:02;;;;;;;10.40;3.47;;;;;;;9.37;100.00;101488.38;5059289;28;20041;-71
2022/09/25 02:10:31;;;;;;;11.80;3.63;;;;;;;9.30;100.00;101482.47;5059728;28;20051;-72
2022/09/25 02:13:09;;;;;;;9.73;3.75;;;;;;;9.27;100.00;101485.28;5056607;28;20048;-73
2022/09/25 02:15:42;;;;;;;10.85;4.20;;;;;;;9.36;100.00;101483.97;5057440;28;20040;-73
2022/09/25 02:21:12;;;;;;;10.75;3.58;;;;;;;9.30;100.00;101478.03;5051802;28;20035;-71
2022/09/25 02:24:09;;;;;;;15.80;3.83;;;;;;;9.26;100.00;101481.75;5052171;28;20037;-73
2022/09/25 02:26:36;;;;;;;10.52;3.17;;;;;;;9.24;100.00;101488.97;5057197;28;20446;-71
2022/09/25 02:29:02;;;;;;;12.02;3.65;;;;;;;9.19;100.00;101484.78;5032320;28;20608;-73
2022/09/25 02:31:39;;;;;;;8.13;3.40;;;;;;;9.07;100.00;101479.09;5058172;28;20049;-73
2022/09/25 02:34:05;;;;;;;15.30;3.55;;;;;;;9.17;100.00;101482.19;5055936;28;20055;-73
2022/09/25 02:36:32;;;;;;;20.42;4.88;;;;;;;9.08;100.00;101486.13;5056471;28;20052;-71
2022/09/25 02:38:59;;;;;;;21.25;5.45;;;;;;;8.98;100.00;101489.28;5057445;28;20730;-73
2022/09/25 02:41:36;;;;;;;14.93;3.55;;;;;;;8.95;100.00;101487.66;5054922;28;20041;-72
2022/09/25 02:44:07;;;;;;;10.95;3.22;;;;;;;8.90;100.00;101495.00;5055995;28;20040;-73
2022/09/25 02:46:32;;;;;;;15.00;3.72;;;;;;;8.90;100.00;101495.00;5053975;28;20533;-73
2022/09/25 02:49:04;;;;;;;12.65;3.45;;;;;;;8.89;100.00;101493.28;5056853;28;20130;-71
2022/09/25 02:51:51;;;;;;;11.18;3.92;;;;;;;8.79;100.00;101492.81;5058787;28;20028;-73
2022/09/25 02:54:29;;;;;;;8.88;3.10;;;;;;;8.70;100.00;101487.06;5049628;28;20048;-72
2022/09/25 02:57:06;;;;;;;10.77;3.33;;;;;;;8.80;100.00;101486.56;5057685;28;20150;-72
2022/09/25 02:59:49;;;;;;;12.75;3.45;;;;;;;8.86;100.00;101485.41;5051543;28;20098;-72
2022/09/25 03:02:16;;;;;;;15.63;3.92;;;;;;;8.90;100.00;101486.16;5054374;28;20136;-72
2022/09/25 03:04:45;;;;;;;11.65;3.45;;;;;;;8.86;100.00;101480.09;5060043;28;20754;-73
2022/09/25 03:07:10;;;;;;;12.32;3.40;;;;;;;8.79;100.00;101479.53;5054611;28;20032;-72
2022/09/25 03:09:40;;;;;;;15.02;3.42;;;;;;;8.84;100.00;101467.81;5058586;28;20151;-71
2022/09/25 03:12:05;;;;;;;7.53;3.30;;;;;;;8.70;100.00;101477.28;5058381;28;20062;-73
2022/09/25 03:14:31;;;;;;;6.40;3.08;;;;;;;8.50;100.00;101474.66;5033616;28;20033;-73
2022/09/25 03:17:01;;;;;;;11.45;3.53;;;;;;;8.59;100.00;101463.63;5057267;28;20055;-73
2022/09/25 03:19:28;;;;;;;10.20;3.70;;;;;;;8.69;100.00;101466.72;5057244;28;20098;-72
2022/09/25 03:21:53;;;;;;;12.60;3.50;;;;;;;8.70;100.00;101479.06;5055726;28;20058;-72
2022/09/25 03:24:20;;;;;;;14.00;4.15;;;;;;;8.61;100.00;101483.00;5059183;28;20040;-73
2022/09/25 03:26:45;;;;;;;9.48;3.22;;;;;;;8.51;100.00;101482.56;5052746;28;20138;-72
2022/09/25 03:29:13;;;;;;;10.30;3.72;;;;;;;8.42;100.00;101482.09;5058597;28;20123;-72
2022/09/25 03:31:41;;;;;;;10.68;3.17;;;;;;;8.57;100.00;101481.41;5041584;28;20071;-72
2022/09/25 03:34:07;;;;;;;13.70;3.55;;;;;;;8.61;100.00;101468.84;5060831;28;20157;-73
2022/09/25 03:36:34;;;;;;;9.77;3.70;;;;;;;8.64;100.00;101479.38;5060784;28;20044;-73
2022/09/25 03:38:59;;;;;;;18.70;3.72;;;;;;;8.57;100.00;101470.78;5058827;28;20043;-73
2022/09/25 03:41:28;;;;;;;12.10;4.22;;;;;;;8.64;100.00;101468.72;5056779;28;20028;-72
2022/09/25 03:43:55;;;;;;;17.77;4.05;;;;;;;8.61;100.00;101466.19;5058555;28;20158;-71
2022/09/25 03:46:24;;;;;;;16.73;5.30;;;;;;;8.58;100.00;101464.53;5058824;28;20036;-73
2022/09/25 03:48:51;;;;;;;13.32;3.15;;;;;;;8.46;100.00;101473.06;5063061;28;20447;-73
2022/09/25 03:51:18;;;;;;;9.20;3.15;;;;;;;8.40;100.00;101466.22;5062401;28;20120;-73
2022/09/25 03:53:44;;;;;;;8.85;3.83;;;;;;;8.42;100.00;101467.00;5044173;28;20043;-72
2022/09/25 03:56:12;;;;;;;10.13;3.72;;;;;;;8.23;100.00;101474.91;5062642;28;20063;-72
2022/09/25 03:58:38;;;;;;;18.20;4.07;;;;;;;8.19;100.00;101470.66;5061273;28;20084;-72
2022/09/25 04:01:04;;;;;;;4.75;2.85;;;;;;;8.10;100.00;101470.19;5060833;28;20128;-73
2022/09/25 04:03:31;;;;;;;13.65;4.68;;;;;;;8.07;100.00;101467.66;5062528;28;20093;-73
2022/09/25 04:05:58;;;;;;;8.40;4.25;;;;;;;8.11;100.00;101474.56;5057629;28;20481;-73
2022/09/25 04:08:26;;;;;;;14.25;3.65;;;;;;;8.09;100.00;101472.00;5057873;28;20033;-71
2022/09/25 04:10:55;;;;;;;8.82;3.35;;;;;;;8.02;100.00;101466.06;5060831;28;20119;-73
2022/09/25 04:13:21;;;;;;;7.45;3.85;;;;;;;7.98;100.00;101466.25;5061902;28;20039;-72
2022/09/25 04:15:46;;;;;;;7.05;3.45;;;;;;;7.86;100.00;101464.97;5061575;28;20467;-73
2022/09/25 04:18:13;;;;;;;10.93;4.22;;;;;;;7.72;100.00;101472.66;5043954;28;20045;-72
2022/09/25 04:20:39;;;;;;;13.35;3.45;;;;;;;7.80;100.00;101462.59;5059100;28;20619;-71
2022/09/25 04:23:04;;;;;;;11.63;3.22;;;;;;;7.74;100.00;101471.69;5055379;28;20041;-72
2022/09/25 04:25:29;;;;;;;9.73;4.25;;;;;;;7.66;100.00;101478.22;5060678;28;20673;-72
2022/09/25 04:27:57;;;;;;;6.95;2.65;;;;;;;7.57;100.00;101476.78;5060992;28;20527;-72
2022/09/25 04:30:24;;;;;;;3.58;2.70;;;;;;;7.59;100.00;101479.41;5025227;28;20056;-72
2022/09/25 04:35:51;;;;;;;9.93;4.05;;;;;;;7.82;100.00;101476.66;5020548;28;20065;-72
2022/09/25 04:38:16;;;;;;;7.63;3.17;;;;;;;7.86;100.00;101469.44;5015425;28;20053;-73
2022/09/25 04:40:42;;;;;;;14.23;4.35;;;;;;;7.79;100.00;101475.00;5014251;28;20052;-73
2022/09/25 04:43:07;;;;;;;6.72;3.67;;;;;;;7.66;100.00;101476.44;5011640;28;20057;-72
2022/09/25 04:45:36;;;;;;;9.68;3.28;;;;;;;7.49;100.00;101477.13;4998487;28;20037;-71
2022/09/25 04:48:02;;;;;;;5.60;2.88;;;;;;;7.46;100.00;101471.94;5016943;28;20056;-71
2022/09/25 04:50:29;;;;;;;8.40;2.85;;;;;;;7.36;100.00;101465.25;5018535;28;20127;-71
2022/09/25 04:53:01;;;;;;;5.28;3.25;;;;;;;7.41;100.00;101468.59;5013155;28;20088;-70
2022/09/25 04:55:26;;;;;;;6.80;2.83;;;;;;;7.33;100.00;101465.41;5017152;28;20053;-71
2022/09/25 04:57:57;;;;;;;7.65;2.75;;;;;;;7.22;100.00;101465.81;5017396;28;20068;-72
2022/09/25 05:00:25;;;;;;;5.97;2.72;;;;;;;7.26;100.00;101458.59;5015181;28;20103;-70
2022/09/25 05:02:51;;;;;;;7.03;2.92;;;;;;;7.13;100.00;101458.22;5017596;28;20061;-71
2022/09/25 05:05:18;;;;;;;2.70;2.03;;;;;;;7.01;100.00;101464.00;5018316;28;20033;-70
2022/09/25 05:07:53;;;;;;;5.00;2.20;;;;;;;7.10;100.00;101458.34;5018138;28;20056;-71
2022/09/25 05:10:19;;;;;;;6.63;2.47;;;;;;;7.13;100.00;101463.53;5042523;28;20512;-71
2022/09/25 05:12:46;;;;;;;5.05;2.40;;;;;;;7.16;100.00;101460.75;5060334;28;20350;-72
2022/09/25 05:15:11;;;;;;;3.33;2.70;;;;;;;7.20;100.00;101457.06;5060761;28;20036;-70
2022/09/25 05:17:37;;;;;;;81.90;7.65;;;;;;;7.26;100.00;101458.59;5055620;28;20044;-71
2022/09/25 05:20:02;;;;;;;5.65;3.33;;;;;;;7.20;100.00;101453.53;5056581;28;20055;-70
2022/09/25 05:22:28;;;;;;;7.38;2.97;;;;;;;7.23;100.00;101456.94;5058756;28;20044;-70
2022/09/25 05:24:53;;;;;;;7.70;3.25;;;;;;;7.23;100.00;101448.13;5059849;28;20040;-71
2022/09/25 05:27:20;;;;;;;2.38;2.10;;;;;;;7.01;100.00;101458.69;5059707;28;20032;-71
2022/09/25 05:29:46;;;;;;;3.22;1.40;;;;;;;6.93;100.00;101448.41;5054137;28;20041;-71
2022/09/25 05:32:11;;;;;;;8.50;1.95;;;;;;;6.94;100.00;101452.78;5061458;28;20049;-70
2022/09/25 05:34:37;;;;;;;9.50;3.88;;;;;;;6.98;100.00;101446.44;5054922;28;20039;-72
2022/09/25 05:37:02;;;;;;;6.55;3.42;;;;;;;6.95;100.00;101446.53;5058976;28;20040;-71
2022/09/25 05:39:28;;;;;;;6.75;3.17;;;;;;;7.02;100.00;101455.13;5059565;28;20044;-71
2022/09/25 05:41:53;;;;;;;9.55;3.58;;;;;;;7.06;100.00;101453.22;5056375;28;20543;-72
2022/09/25 05:44:20;;;;;;;4.93;1.83;;;;;;;6.80;100.00;101455.09;5053970;28;20033;-72
2022/09/25 05:46:45;;;;;;;9.57;1.52;;;;;;;6.53;100.00;101462.28;5055615;28;20545;-72
2022/09/25 05:49:11;;;;;;;5.50;1.20;;;;;;;6.73;100.00;101461.56;5053734;28;20049;-72
2022/09/25 05:51:36;;;;;;;12.70;1.63;;;;;;;6.65;100.00;101463.59;5059044;28;20105;-72
2022/09/25 05:54:02;;;;;;;2.08;1.00;;;;;;;6.70;100.00;101472.25;5038919;28;20037;-71
2022/09/25 05:56:27;;;;;;;7.43;1.08;;;;;;;6.73;100.00;101472.16;5056292;28;20029;-71
2022/09/25 05:58:54;;;;;;;2.67;1.63;;;;;;;6.82;100.00;101462.97;5061004;28;20072;-72
2022/09/25 06:01:21;;;;;;;4.38;2.30;;;;;;;7.06;100.00;101471.78;5056178;28;20040;-72
2022/09/25 06:03:47;;;;;;;7.97;3.00;;;;;;;7.36;100.00;101465.25;5059106;28;20051;-70
2022/09/25 06:06:12;;;;;;;7.30;2.90;;;;;;;7.62;100.00;101464.19;5057864;28;20033;-72
2022/09/25 06:08:38;;;;;;;7.15;3.88;;;;;;;7.76;100.00;101460.97;5058019;28;20122;-71
2022/09/25 06:11:04;;;;;;;12.20;3.40;;;;;;;7.80;100.00;101462.59;5058251;28;20459;-70
2022/09/25 06:13:33;;;;;;;16.48;3.75;;;;;;;7.89;100.00;101459.56;5056357;28;20075;-72
2022/09/25 06:15:59;;;;;;;11.38;3.80;;;;;;;8.03;100.00;101461.59;5057974;28;20144;-72
2022/09/25 06:18:25;;;;;;;7.32;3.20;;;;;;;8.07;100.00;101457.88;5056315;28;20098;-72
2022/09/25 06:20:58;;;;;;;6.82;3.17;;;;;;;8.14;100.00;101464.69;5054481;28;20853;-72
2022/09/25 06:23:24;;;;;;;8.40;3.10;;;;;;;8.31;100.00;101466.59;5056034;28;20063;-71
2022/09/25 06:25:49;;;;;;;11.98;3.25;;;;;;;8.31;100.00;101463.94;5056978;28;20043;-71
2022/09/25 06:28:15;;;;;;;6.72;2.97;;;;;;;8.49;100.00;101467.63;5059374;28;20032;-72
2022/09/25 06:30:40;;;;;;;8.85;3.25;;;;;;;8.79;100.00;101466.22;5058643;28;20040;-73
2022/09/25 06:33:11;;;;;;;11.27;3.53;;;;;;;9.14;100.00;101453.09;5059201;28;20396;-75
2022/09/25 06:35:42;;;;;;;5.22;2.90;;;;;;;9.31;100.00;101457.59;5050712;28;20123;-72
2022/09/25 06:38:07;;;;;;;7.57;3.20;;;;;;;9.43;100.00;101464.09;5055697;28;20052;-71
2022/09/25 06:40:33;;;;;;;8.70;2.88;;;;;;;10.05;100.00;101471.63;5057175;28;20044;-73
2022/09/25 06:43:03;;;;;;;11.82;3.97;;;;;;;10.02;100.00;101461.13;5058851;28;20047;-72
2022/09/25 06:45:32;;;;;;;11.60;3.40;;;;;;;10.77;100.00;101451.00;5059040;28;20043;-72
2022/09/25 06:48:12;;;;;;;7.40;2.90;;;;;;;10.60;100.00;101460.78;5051167;28;20047;-72
2022/09/25 06:50:46;;;;;;;9.02;3.13;;;;;;;10.89;100.00;101467.22;5054077;28;20580;-73
2022/09/25 06:53:12;;;;;;;7.10;2.90;;;;;;;11.36;100.00;101460.19;5040230;28;20611;-74
2022/09/25 06:55:39;;;;;;;12.25;2.67;;;;;;;11.32;100.00;101459.47;5058048;28;20538;-71
2022/09/25 06:58:07;;;;;;;6.05;2.47;;;;;;;11.69;100.00;101454.69;5055267;28;20032;-72
2022/09/25 07:00:33;;;;;;;7.13;2.20;;;;;;;12.09;100.00;101460.41;5055993;28;20041;-71
2022/09/25 07:05:46;;;;;;;10.60;2.35;;;;;;;12.19;100.00;101461.56;5058915;28;20095;-72
2022/09/25 07:08:16;;;;;;;3.08;1.90;;;;;;;12.49;100.00;101461.50;5055381;28;20123;-73
2022/09/25 07:10:52;;;;;;;7.63;1.85;;;;;;;12.67;100.00;101459.53;5057697;28;20054;-71
2022/09/25 07:13:23;;;;;;;2.95;1.90;;;;;;;13.01;100.00;101462.75;5058592;28;20052;-71
2022/09/25 07:15:53;;;;;;;4.25;1.83;;;;;;;13.16;100.00;101469.81;5059985;28;20036;-72
2022/09/25 07:18:22;;;;;;;7.32;2.33;;;;;;;13.27;100.00;101459.31;5058592;28;20637;-71
2022/09/25 07:20:49;;;;;;;10.73;2.92;;;;;;;13.24;100.00;101472.03;5055183;28;20052;-71
2022/09/25 07:23:17;;;;;;;8.20;1.98;;;;;;;13.25;100.00;101482.63;5049541;28;20097;-72
2022/09/25 07:25:44;;;;;;;10.70;2.53;;;;;;;13.63;100.00;101477.47;5060222;28;20044;-71
2022/09/25 07:28:14;;;;;;;5.15;2.08;;;;;;;14.09;100.00;101481.56;5059578;28;20922;-73
2022/09/25 07:30:41;;;;;;;7.25;1.95;;;;;;;14.43;100.00;101482.81;5053715;28;20028;-71
2022/09/25 07:33:06;;;;;;;7.72;2.15;;;;;;;14.24;100.00;101484.06;5057801;28;20025;-73
2022/09/25 07:35:36;;;;;;;7.28;2.08;;;;;;;14.94;99.99;101480.97;5055140;28;20052;-71
2022/09/25 07:38:02;;;;;;;4.47;1.75;;;;;;;14.65;99.52;101484.88;5057673;28;20150;-72
2022/09/25 07:40:32;;;;;;;7.88;2.38;;;;;;;14.74;98.79;101478.84;5058062;28;20043;-72
2022/09/25 07:42:59;;;;;;;5.22;1.63;;;;;;;14.85;100.00;101480.78;5058799;28;20442;-72
2022/09/25 07:45:24;;;;;;;6.18;1.55;;;;;;;15.22;96.61;101482.56;5058515;28;20037;-73
2022/09/25 07:47:49;;;;;;;6.05;1.60;;;;;;;15.38;98.59;101470.69;5060364;28;20840;-73
2022/09/25 07:50:15;;;;;;;9.80;2.95;;;;;;;15.19;97.86;101477.38;5037585;28;20105;-71
2022/09/25 07:52:40;;;;;;;3.33;1.85;;;;;;;15.02;98.50;101472.38;5056963;28;20044;-72
2022/09/25 07:55:06;;;;;;;5.43;1.77;;;;;;;14.99;100.00;101468.09;5057964;28;20028;-70
2022/09/25 07:57:33;;;;;;;7.38;2.40;;;;;;;15.38;98.28;101474.22;5038070;28;20044;-70
2022/09/25 07:59:58;;;;;;;6.53;1.70;;;;;;;14.66;97.89;101471.38;5039963;28;20094;-70
2022/09/25 08:02:23;;;;;;;4.85;1.73;;;;;;;14.06;100.00;101482.66;5054439;28;20044;-69
2022/09/25 08:04:49;;;;;;;4.50;2.03;;;;;;;14.56;100.00;101488.19;5056786;28;20036;-71
2022/09/25 08:07:14;;;;;;;2.83;1.52;;;;;;;14.46;100.00;101477.22;5056937;28;20492;-70
2022/09/25 08:09:40;;;;;;;6.53;2.00;;;;;;;14.54;100.00;101479.41;5058953;28;20406;-71
2022/09/25 08:12:08;;;;;;;3.28;1.63;;;;;;;14.45;100.00;101478.16;5059194;28;20033;-69
2022/09/25 08:14:34;;;;;;;5.35;2.38;;;;;;;14.44;100.00;101471.94;5058984;28;20096;-70
2022/09/25 08:16:59;;;;;;;9.65;1.70;;;;;;;14.17;100.00;101473.88;5058759;28;20049;-73
2022/09/25 08:19:26;;;;;;;3.30;1.52;;;;;;;14.30;100.00;101481.91;5055010;28;20047;-71
2022/09/25 08:21:52;;;;;;;5.85;1.50;;;;;;;14.36;100.00;101477.00;5057945;28;20812;-71
2022/09/25 08:24:17;;;;;;;10.82;1.80;;;;;;;14.47;100.00;101474.47;5059042;28;20040;-71
2022/09/25 08:26:43;;;;;;;5.15;1.92;;;;;;;14.53;100.00;101481.22;5052481;28;20070;-70
2022/09/25 08:29:09;;;;;;;1.95;1.20;;;;;;;14.40;100.00;101473.13;5058201;28;20779;-70
2022/09/25 08:31:34;;;;;;;3.45;1.27;;;;;;;14.55;100.00;101476.59;5057561;28;20751;-70
2022/09/25 08:34:00;;;;;;;4.30;1.20;;;;;;;14.41;100.00;101477.56;5036414;28;20048;-71
2022/09/25 08:36:26;;;;;;;6.40;1.45;;;;;;;14.14;100.00;101479.44;5057317;28;20435;-71
2022/09/25 08:38:57;;;;;;;8.75;2.00;;;;;;;14.11;100.00;101474.28;5046480;28;20120;-71
2022/09/25 08:41:22;;;;;;;9.90;1.55;;;;;;;14.39;100.00;101462.50;5050724;28;20942;-70
2022/09/25 08:43:53;;;;;;;5.85;1.33;;;;;;;14.03;100.00;101469.44;5058004;28;20040;-71
2022/09/25 08:49:20;;;;;;;6.25;0.90;;;;;;;14.59;98.13;101467.38;5051598;28;20530;-71
2022/09/25 08:51:49;;;;;;;6.68;1.38;;;;;;;14.49;95.35;101463.63;5039664;28;20045;-70
2022/09/25 08:54:30;;;;;;;7.22;0.98;;;;;;;14.51;92.25;101459.03;5056635;28;20040;-69
2022/09/25 08:57:00;;;;;;;2.30;0.95;;;;;;;14.48;93.40;101465.44;5056150;28;20144;-71
2022/09/25 08:59:31;;;;;;;4.00;1.08;;;;;;;14.12;96.65;101455.41;5059295;28;20603;-71
2022/09/25 09:02:09;;;;;;;2.07;1.30;;;;;;;14.15;95.76;101467.72;5052238;28;20029;-70
2022/09/25 09:04:43;;;;;;;13.05;2.20;;;;;;;14.59;97.63;101458.47;5057565;28;20040;-70
2022/09/25 09:07:17;;;;;;;5.00;1.20;;;;;;;14.42;96.48;101460.47;5051038;28;20501;-70
2022/09/25 09:09:53;;;;;;;2.30;0.82;;;;;;;15.01;92.05;101452.72;5056426;28;20117;-72
2022/09/25 09:12:28;;;;;;;2.65;1.00;;;;;;;15.06;93.71;101462.25;5057857;28;20588;-70
2022/09/25 09:15:05;;;;;;;1.60;0.80;;;;;;;15.26;89.15;101459.88;5051954;28;20784;-72
2022/09/25 09:17:38;;;;;;;3.95;0.93;;;;;;;15.25;95.50;101462.66;5054597;28;20037;-71
2022/09/25 09:20:16;;;;;;;1.08;0.88;;;;;;;15.41;84.99;101463.25;5051089;28;20047;-72
2022/09/25 09:22:49;;;;;;;3.05;0.73;;;;;;;15.42;84.35;101462.28;5054569;28;20123;-73
2022/09/25 09:25:24;;;;;;;7.68;1.15;;;;;;;15.55;89.97;101462.22;5054740;28;20575;-71
2022/09/25 09:28:19;;;;;;;4.15;0.85;;;;;;;15.26;88.49;101464.34;5056102;28;20101;-71
2022/09/25 09:31:12;;;;;;;7.57;1.75;;;;;;;15.83;88.64;101469.13;5046382;28;20534;-71
2022/09/25 09:34:09;;;;;;;4.97;1.00;;;;;;;15.95;85.11;101459.25;5056445;28;20052;-72
2022/09/25 09:36:53;;;;;;;4.32;0.93;;;;;;;16.04;88.96;101453.16;5050546;28;20119;-72
2022/09/25 09:39:26;;;;;;;7.20;1.00;;;;;;;16.66;80.54;101446.53;5056082;28;20555;-72
2022/09/25 09:42:18;;;;;;;3.90;0.80;;;;;;;16.32;83.13;101451.91;5050709;28;20044;-71
2022/09/25 09:45:02;;;;;;;1.83;0.80;;;;;;;15.96;84.63;101448.38;5056137;28;20040;-72
2022/09/25 09:47:40;;;;;;;8.52;1.60;;;;;;;15.90;90.85;101445.28;5058326;28;20127;-71
2022/09/25 09:50:17;;;;;;;3.38;0.90;;;;;;;15.65;81.69;101444.44;5055947;28;20185;-72
2022/09/25 09:52:46;;;;;;;2.35;0.73;;;;;;;15.63;84.24;101448.22;5055258;28;20900;-72
2022/09/25 09:55:35;;;;;;;13.50;2.75;;;;;;;15.72;85.77;101450.25;5057091;28;20037;-73
2022/09/25 09:58:13;;;;;;;2.10;0.60;;;;;;;16.05;80.83;101446.81;5056197;28;20857;-71
2022/09/25 10:00:39;;;;;;;4.00;0.95;;;;;;;15.96;79.19;101445.69;5054611;28;20044;-72
2022/09/25 10:03:19;;;;;;;1.75;0.95;;;;;;;15.88;80.50;101450.78;5037053;28;20041;-71
2022/09/25 10:05:50;;;;;;;3.53;0.80;;;;;;;15.74;80.70;101448.28;5053700;28;20922;-72
2022/09/25 10:08:16;;;;;;;4.03;1.10;;;;;;;15.64;84.87;101444.56;5036795;28;20036;-71
2022/09/25 10:10:46;;;;;;;1.67;0.73;;;;;;;16.04;80.45;101445.09;5056693;28;20054;-72
2022/09/25 10:13:24;;;;;;;7.97;1.00;;;;;;;16.03;82.74;101444.25;5057525;28;20064;-71
2022/09/25 10:15:59;;;;;;;2.05;0.82;;;;;;;16.41;83.48;101439.53;5056262;28;20060;-72
2022/09/25 10:18:35;;;;;;;4.72;0.77;;;;;;;16.52;79.14;101434.19;5057174;28;20047;-76
2022/09/25 10:21:08;;;;;;;2.63;0.68;;;;;;;15.98;82.81;101438.34;5053064;28;20032;-75
2022/09/25 10:23:51;;;;;;;3.95;1.27;;;;;;;16.11;77.77;101440.09;5052121;28;20726;-74
2022/09/25 10:26:28;;;;;;;0.80;0.80;;;;;;;16.23;77.85;101431.09;5047840;28;20530;-74
2022/09/25 10:28:59;;;;;;;2.83;0.90;;;;;;;16.28;76.67;101432.44;5047268;28;20025;-73
2022/09/25 10:31:32;;;;;;;4.63;1.25;;;;;;;17.17;73.62;101428.06;5056059;28;20135;-75
2022/09/25 10:34:04;;;;;;;2.85;1.02;;;;;;;17.41;72.63;101422.47;5058036;28;20041;-75
2022/09/25 10:36:32;;;;;;;2.65;0.88;;;;;;;16.78;73.69;101427.63;5055309;28;20098;-70
2022/09/25 10:38:58;;;;;;;2.78;0.68;;;;;;;16.30;77.38;101435.00;5052054;28;20645;-71
2022/09/25 10:41:24;;;;;;;4.28;0.95;;;;;;;15.83;81.32;101422.53;5055202;28;20048;-73
2022/09/25 10:43:54;;;;;;;3.03;0.80;;;;;;;15.70;80.46;101425.28;5058733;28;20036;-74
2022/09/25 10:52:10;;;;;;;2.92;0.80;;;;;;;16.33;76.67;101423.16;5060671;28;20393;-76
2022/09/25 10:54:35;;;;;;;4.57;1.05;;;;;;;16.12;78.20;101426.53;5061433;28;20033;-74
2022/09/25 10:57:33;;;;;;;6.22;1.25;;;;;;;15.78;78.26;101423.75;5042911;28;20044;-72
2022/09/25 11:00:01;;;;;;;7.20;0.95;;;;;;;15.77;80.16;101426.56;5059304;28;20372;-73
2022/09/25 11:02:37;;;;;;;1.42;0.65;;;;;;;16.22;84.58;101429.38;5053349;28;20074;-72
2022/09/25 11:05:04;;;;;;;4.45;1.20;;;;;;;16.71;76.45;101422.81;5058278;28;20055;-72
2022/09/25 11:07:31;;;;;;;8.25;2.45;;;;;;;16.71;69.55;101406.63;5060647;28;20044;-73
2022/09/25 11:09:57;;;;;;;1.50;0.55;;;;;;;16.65;68.62;101416.06;5055657;28;20136;-74
2022/09/25 11:12:25;;;;;;;2.35;0.45;;;;;;;16.47;74.16;101418.41;5042024;28;20048;-72
2022/09/25 11:14:57;;;;;;;3.30;0.70;;;;;;;16.49;68.68;101413.75;5061376;28;20698;-72
2022/09/25 11:17:40;;;;;;;1.42;0.73;;;;;;;16.58;69.74;101406.78;5059855;28;20179;-72
2022/09/25 11:20:15;;;;;;;2.40;0.77;;;;;;;16.68;73.47;101405.06;5060281;28;20074;-73
2022/09/25 11:22:45;;;;;;;3.22;0.50;;;;;;;16.91;70.45;101421.22;5060158;28;20102;-73
2022/09/25 11:25:25;;;;;;;3.33;0.55;;;;;;;17.20;69.23;101411.63;5061280;28;20109;-72
2022/09/25 11:28:10;;;;;;;3.58;0.70;;;;;;;17.15;71.76;101402.22;5059574;28;20043;-71
2022/09/25 11:31:10;;;;;;;1.23;0.80;;;;;;;16.84;71.35;101407.41;5040267;28;20378;-72
2022/09/25 11:33:49;;;;;;;1.83;0.80;;;;;;;16.16;70.17;101413.69;5019265;28;20045;-72
2022/09/25 11:36:18;;;;;;;4.15;0.80;;;;;;;15.76;75.26;101412.25;5056837;28;20044;-72
2022/09/25 11:41:57;;;;;;;1.20;0.77;;;;;;;16.56;73.63;101395.25;5058034;28;20522;-73
2022/09/25 11:44:33;;;;;;;2.72;0.77;;;;;;;16.53;70.85;101395.53;5060092;28;20579;-72
2022/09/25 11:47:20;;;;;;;2.72;1.10;;;;;;;16.25;69.65;101389.63;5038641;28;20063;-71
2022/09/25 11:49:52;;;;;;;1.05;0.60;;;;;;;16.57;68.63;101380.84;5057866;28;20047;-73
2022/09/25 11:52:40;;;;;;;2.33;0.52;;;;;;;16.57;69.98;101376.31;5060300;28;20037;-73
2022/09/25 11:55:27;;;;;;;1.30;0.57;;;;;;;16.66;65.28;101381.91;5059259;28;20828;-73
2022/09/25 11:57:59;;;;;;;1.25;0.90;;;;;;;16.74;63.78;101372.28;5059820;28;20067;-73